Time;durP1;ratioP1;P1;durP2;ratioP2;P2;SDS_P1;SDS_P2;PMS_P1;PMS_P2;Temp;Humidity;BMP_temperature;BMP_pressure;BME280_temperature;BME280_humidity;BME280_pressure;Samples;Min_cycle;Max_cycle;Signal;HPM_P1;HPM_P2
2022/09/17 00:01:10;;;;;;;;;;;;;;;;;;4994482;28;19964;-23
2022/09/17 00:03:36;;;;;;;;;;;;;;;;;;4994719;28;19909;-23
2022/09/17 00:06:02;;;;;;;;;;;;;;;;;;4994436;28;20416;-24
2022/09/17 00:08:28;;;;;;;;;;;;;;;;;;4994399;28;19921;-24
2022/09/17 00:10:53;;;;;;;;;;;;;;;;;;4994323;28;20016;-22
2022/09/17 00:13:19;;;;;;;;;;;;;;;;;;4994502;28;19925;-23
2022/09/17 00:15:45;;;;;;;;;;;;;;;;;;4994866;28;19917;-23
2022/09/17 00:18:11;;;;;;;;;;;;;;;;;;4994562;28;19914;-24
2022/09/17 00:20:37;;;;;;;;;;;;;;;;;;4994243;28;19941;-23
2022/09/17 00:23:03;;;;;;;;;;;;;;;;;;4994381;28;20004;-23
2022/09/17 00:25:30;;;;;;;;;;;;;;;;;;4994171;28;19910;-24
2022/09/17 00:27:56;;;;;;;;;;;;;;;;;;4994417;28;20311;-23
2022/09/17 00:30:22;;;;;;;;;;;;;;;;;;4994569;28;19918;-23
2022/09/17 00:32:48;;;;;;;;;;;;;;;;;;4993989;28;19917;-23
2022/09/17 00:35:14;;;;;;;;;;;;;;;;;;4993119;28;19970;-23
2022/09/17 00:37:40;;;;;;;;;;;;;;;;;;4993973;28;19914;-23
2022/09/17 00:40:06;;;;;;;;;;;;;;;;;;4993868;28;19914;-23
2022/09/17 00:42:32;;;;;;;;;;;;;;;;;;4993826;28;20044;-23
2022/09/17 00:44:58;;;;;;;;;;;;;;;;;;4994462;28;19913;-22
2022/09/17 00:47:24;;;;;;;;;;;;;;;;;;4994076;28;19914;-23
2022/09/17 00:49:50;;;;;;;;;;;;;;;;;;4993593;28;20012;-23
2022/09/17 00:52:16;;;;;;;;;;;;;;;;;;4993963;28;20344;-23
2022/09/17 00:54:42;;;;;;;;;;;;;;;;;;4993726;28;19947;-23
2022/09/17 00:57:08;;;;;;;;;;;;;;;;;;4993946;28;19914;-26
2022/09/17 00:59:34;;;;;;;;;;;;;;;;;;4993680;28;20016;-24
2022/09/17 01:02:00;;;;;;;;;;;;;;;;;;4993616;28;20318;-23
2022/09/17 01:04:26;;;;;;;;;;;;;;;;;;4993639;28;19914;-23
2022/09/17 01:06:52;;;;;;;;;;;;;;;;;;4993505;28;19997;-23
2022/09/17 01:09:18;;;;;;;;;;;;;;;;;;4993444;28;19972;-23
2022/09/17 01:11:44;;;;;;;;;;;;;;;;;;4993666;28;19914;-24
2022/09/17 01:14:10;;;;;;;;;;;;;;;;;;4993720;28;19909;-26
2022/09/17 01:16:36;;;;;;;;;;;;;;;;;;4993419;28;20264;-23
2022/09/17 01:19:03;;;;;;;;;;;;;;;;;;4993268;28;19909;-24
2022/09/17 01:21:29;;;;;;;;;;;;;;;;;;4993519;28;20260;-22
2022/09/17 01:23:55;;;;;;;;;;;;;;;;;;4993309;28;19914;-23
2022/09/17 01:26:21;;;;;;;;;;;;;;;;;;4993562;28;20301;-23
2022/09/17 01:28:47;;;;;;;;;;;;;;;;;;4993466;28;19914;-22
2022/09/17 01:31:13;;;;;;;;;;;;;;;;;;4993436;28;19996;-23
2022/09/17 01:33:39;;;;;;;;;;;;;;;;;;4993348;28;20359;-22
2022/09/17 01:36:05;;;;;;;;;;;;;;;;;;4993161;28;19914;-22
2022/09/17 01:38:31;;;;;;;;;;;;;;;;;;4993164;28;20005;-23
2022/09/17 01:40:58;;;;;;;;;;;;;;;;;;4993315;28;19936;-23
2022/09/17 01:43:24;;;;;;;;;;;;;;;;;;4993725;28;19925;-25
2022/09/17 01:45:50;;;;;;;;;;;;;;;;;;4992928;28;19925;-24
2022/09/17 01:48:16;;;;;;;;;;;;;;;;;;4993913;28;20261;-23
2022/09/17 01:50:43;;;;;;;;;;;;;;;;;;4993140;28;19918;-22
2022/09/17 01:53:09;;;;;;;;;;;;;;;;;;4992857;28;20268;-25
2022/09/17 01:55:35;;;;;;;;;;;;;;;;;;4992884;28;19914;-23
2022/09/17 01:58:01;;;;;;;;;;;;;;;;;;4992902;28;19910;-25
2022/09/17 02:00:27;;;;;;;;;;;;;;;;;;4993092;28;20358;-27
2022/09/17 02:02:53;;;;;;;;;;;;;;;;;;4993012;28;19918;-25
2022/09/17 02:05:19;;;;;;;;;;;;;;;;;;4993059;28;19914;-27
2022/09/17 02:07:45;;;;;;;;;;;;;;;;;;4993317;28;19921;-22
2022/09/17 02:10:11;;;;;;;;;;;;;;;;;;4992655;28;19924;-23
2022/09/17 02:12:37;;;;;;;;;;;;;;;;;;4992756;28;20071;-23
2022/09/17 02:15:03;;;;;;;;;;;;;;;;;;4993447;28;19960;-23
2022/09/17 02:17:29;;;;;;;;;;;;;;;;;;4992869;28;19924;-22
2022/09/17 02:19:55;;;;;;;;;;;;;;;;;;4993362;28;19996;-25
2022/09/17 02:22:21;;;;;;;;;;;;;;;;;;4992567;28;19921;-23
2022/09/17 02:24:47;;;;;;;;;;;;;;;;;;4992855;28;19923;-22
2022/09/17 02:27:13;;;;;;;;;;;;;;;;;;4992761;28;19974;-22
2022/09/17 02:29:40;;;;;;;;;;;;;;;;;;4992418;28;20318;-24
2022/09/17 02:32:06;;;;;;;;;;;;;;;;;;4993697;28;19967;-22
2022/09/17 02:34:32;;;;;;;;;;;;;;;;;;4995873;28;19914;-26
2022/09/17 02:36:58;;;;;;;;;;;;;;;;;;4995865;28;20353;-23
2022/09/17 02:39:24;;;;;;;;;;;;;;;;;;4996000;28;19918;-23
2022/09/17 02:41:50;;;;;;;;;;;;;;;;;;4995623;28;20013;-22
2022/09/17 02:44:17;;;;;;;;;;;;;;;;;;4995735;28;19921;-24
2022/09/17 02:46:43;;;;;;;;;;;;;;;;;;4995694;28;20263;-23
2022/09/17 02:49:09;;;;;;;;;;;;;;;;;;4995375;28;19922;-25
2022/09/17 02:51:35;;;;;;;;;;;;;;;;;;4995633;28;20005;-23
2022/09/17 02:54:01;;;;;;;;;;;;;;;;;;4996088;28;19925;-23
2022/09/17 02:56:27;;;;;;;;;;;;;;;;;;4995785;28;19914;-23
2022/09/17 02:58:53;;;;;;;;;;;;;;;;;;4995538;28;19918;-22
2022/09/17 03:01:19;;;;;;;;;;;;;;;;;;4995994;28;19914;-23
2022/09/17 03:03:45;;;;;;;;;;;;;;;;;;4995394;28;19917;-22
2022/09/17 03:06:12;;;;;;;;;;;;;;;;;;4995341;28;20006;-21
2022/09/17 03:08:39;;;;;;;;;;;;;;;;;;4995373;28;19910;-22
2022/09/17 03:11:05;;;;;;;;;;;;;;;;;;4995495;28;19922;-24
2022/09/17 03:13:31;;;;;;;;;;;;;;;;;;4995122;28;19910;-22
2022/09/17 03:15:57;;;;;;;;;;;;;;;;;;4995222;28;20009;-23
2022/09/17 03:18:23;;;;;;;;;;;;;;;;;;4995239;28;20266;-23
2022/09/17 03:20:49;;;;;;;;;;;;;;;;;;4995178;28;20276;-24
2022/09/17 03:23:15;;;;;;;;;;;;;;;;;;4995039;28;20004;-23
2022/09/17 03:25:41;;;;;;;;;;;;;;;;;;4995352;28;19921;-22
2022/09/17 03:28:07;;;;;;;;;;;;;;;;;;4995276;28;19913;-22
2022/09/17 03:30:33;;;;;;;;;;;;;;;;;;4995187;28;19953;-25
2022/09/17 03:32:59;;;;;;;;;;;;;;;;;;4994979;28;19996;-24
2022/09/17 03:35:25;;;;;;;;;;;;;;;;;;4994822;28;20412;-22
2022/09/17 03:37:51;;;;;;;;;;;;;;;;;;4994854;28;19910;-25
2022/09/17 03:40:17;;;;;;;;;;;;;;;;;;4994801;28;20406;-22
2022/09/17 03:42:43;;;;;;;;;;;;;;;;;;4994715;28;20436;-23
2022/09/17 03:45:09;;;;;;;;;;;;;;;;;;4994790;28;19936;-24
2022/09/17 03:47:35;;;;;;;;;;;;;;;;;;4995037;28;19921;-23
2022/09/17 03:50:01;;;;;;;;;;;;;;;;;;4994490;28;19922;-22
2022/09/17 03:52:27;;;;;;;;;;;;;;;;;;4995119;28;19925;-23
2022/09/17 03:54:53;;;;;;;;;;;;;;;;;;4994978;28;19909;-23
2022/09/17 03:57:19;;;;;;;;;;;;;;;;;;4995154;28;19920;-23
2022/09/17 03:59:45;;;;;;;;;;;;;;;;;;4994741;28;20230;-23
2022/09/17 04:02:11;;;;;;;;;;;;;;;;;;4994390;28;19916;-23
2022/09/17 04:04:37;;;;;;;;;;;;;;;;;;4994485;28;20306;-23
2022/09/17 04:07:03;;;;;;;;;;;;;;;;;;4994059;28;20379;-23
2022/09/17 04:09:29;;;;;;;;;;;;;;;;;;4994206;28;19918;-23
2022/09/17 04:11:55;;;;;;;;;;;;;;;;;;4993999;28;20233;-23
2022/09/17 04:14:21;;;;;;;;;;;;;;;;;;4993840;28;19914;-23
2022/09/17 04:16:47;;;;;;;;;;;;;;;;;;4993810;28;19914;-25
2022/09/17 04:19:13;;;;;;;;;;;;;;;;;;4993985;28;20275;-24
2022/09/17 04:21:39;;;;;;;;;;;;;;;;;;4993955;28;20254;-24
2022/09/17 04:24:05;;;;;;;;;;;;;;;;;;4993454;28;19914;-23
2022/09/17 04:26:31;;;;;;;;;;;;;;;;;;4993567;28;19967;-23
2022/09/17 04:28:57;;;;;;;;;;;;;;;;;;4993738;28;20013;-23
2022/09/17 04:31:25;;;;;;;;;;;;;;;;;;4993441;28;20380;-23
2022/09/17 04:33:51;;;;;;;;;;;;;;;;;;4993306;28;19945;-25
2022/09/17 04:36:17;;;;;;;;;;;;;;;;;;4993363;28;19925;-23
2022/09/17 04:38:43;;;;;;;;;;;;;;;;;;4993629;28;20351;-25
2022/09/17 04:41:09;;;;;;;;;;;;;;;;;;4993269;28;20372;-23
2022/09/17 04:43:35;;;;;;;;;;;;;;;;;;4993550;28;19920;-23
2022/09/17 04:46:01;;;;;;;;;;;;;;;;;;4993558;28;20386;-23
2022/09/17 04:48:27;;;;;;;;;;;;;;;;;;4993221;28;19914;-25
2022/09/17 04:50:53;;;;;;;;;;;;;;;;;;4993437;28;20295;-25
2022/09/17 04:53:19;;;;;;;;;;;;;;;;;;4993016;28;19947;-23
2022/09/17 04:55:45;;;;;;;;;;;;;;;;;;4992239;28;19917;-25
2022/09/17 04:58:11;;;;;;;;;;;;;;;;;;4992986;28;19910;-24
2022/09/17 05:00:37;;;;;;;;;;;;;;;;;;4992989;28;20012;-23
2022/09/17 05:03:03;;;;;;;;;;;;;;;;;;4992895;28;19946;-25
2022/09/17 05:05:29;;;;;;;;;;;;;;;;;;4993022;28;19920;-24
2022/09/17 05:07:55;;;;;;;;;;;;;;;;;;4992979;28;19910;-24
2022/09/17 05:10:21;;;;;;;;;;;;;;;;;;4992768;28;19918;-23
2022/09/17 05:12:47;;;;;;;;;;;;;;;;;;4992852;28;19909;-25
2022/09/17 05:15:13;;;;;;;;;;;;;;;;;;4993177;28;19986;-23
2022/09/17 05:17:39;;;;;;;;;;;;;;;;;;4993385;28;19910;-23
2022/09/17 05:20:05;;;;;;;;;;;;;;;;;;4992785;28;19921;-23
2022/09/17 05:22:31;;;;;;;;;;;;;;;;;;4992745;28;19910;-24
2022/09/17 05:24:57;;;;;;;;;;;;;;;;;;4993843;28;19917;-23
2022/09/17 05:27:23;;;;;;;;;;;;;;;;;;4992821;28;20002;-23
2022/09/17 05:29:49;;;;;;;;;;;;;;;;;;4992709;28;20267;-23
2022/09/17 05:32:15;;;;;;;;;;;;;;;;;;4992642;28;19917;-23
2022/09/17 05:34:41;;;;;;;;;;;;;;;;;;4992786;28;19918;-23
2022/09/17 05:37:07;;;;;;;;;;;;;;;;;;4993018;28;20256;-24
2022/09/17 05:39:33;;;;;;;;;;;;;;;;;;4992818;28;19914;-23
2022/09/17 05:41:59;;;;;;;;;;;;;;;;;;4992706;28;19918;-23
2022/09/17 05:44:25;;;;;;;;;;;;;;;;;;4993162;28;19953;-26
2022/09/17 05:46:51;;;;;;;;;;;;;;;;;;4992649;28;20361;-22
2022/09/17 05:49:17;;;;;;;;;;;;;;;;;;4992538;28;19976;-24
2022/09/17 05:51:43;;;;;;;;;;;;;;;;;;4992697;28;20306;-26
2022/09/17 05:54:09;;;;;;;;;;;;;;;;;;4992619;28;20340;-23
2022/09/17 05:56:35;;;;;;;;;;;;;;;;;;4992700;28;19925;-22
2022/09/17 05:59:01;;;;;;;;;;;;;;;;;;4992550;28;20252;-23
2022/09/17 06:01:27;;;;;;;;;;;;;;;;;;4991394;28;19922;-23
2022/09/17 06:03:53;;;;;;;;;;;;;;;;;;4992293;28;19971;-23
2022/09/17 06:06:19;;;;;;;;;;;;;;;;;;4994006;28;19924;-23
2022/09/17 06:08:45;;;;;;;;;;;;;;;;;;4996018;28;20000;-23
2022/09/17 06:11:11;;;;;;;;;;;;;;;;;;4995740;28;19918;-23
2022/09/17 06:13:37;;;;;;;;;;;;;;;;;;4995531;28;20412;-23
2022/09/17 06:16:03;;;;;;;;;;;;;;;;;;4995941;28;20001;-23
2022/09/17 06:18:29;;;;;;;;;;;;;;;;;;4995757;28;19939;-22
2022/09/17 06:20:55;;;;;;;;;;;;;;;;;;4995746;28;19914;-25
2022/09/17 06:23:21;;;;;;;;;;;;;;;;;;4996150;28;19914;-24
2022/09/17 06:25:47;;;;;;;;;;;;;;;;;;4995897;28;19910;-23
2022/09/17 06:28:13;;;;;;;;;;;;;;;;;;4995735;28;19914;-25
2022/09/17 06:30:39;;;;;;;;;;;;;;;;;;4995260;28;19961;-24
2022/09/17 06:33:05;;;;;;;;;;;;;;;;;;4995462;28;19914;-22
2022/09/17 06:35:31;;;;;;;;;;;;;;;;;;4995609;28;20294;-23
2022/09/17 06:37:57;;;;;;;;;;;;;;;;;;4995393;28;19993;-25
2022/09/17 06:40:23;;;;;;;;;;;;;;;;;;4995410;28;19945;-23
2022/09/17 06:42:49;;;;;;;;;;;;;;;;;;4995042;28;20012;-23
2022/09/17 06:45:15;;;;;;;;;;;;;;;;;;4995136;28;19961;-23
2022/09/17 06:47:41;;;;;;;;;;;;;;;;;;4995434;28;20248;-23
2022/09/17 06:50:07;;;;;;;;;;;;;;;;;;4994882;28;20383;-23
2022/09/17 06:52:33;;;;;;;;;;;;;;;;;;4995151;28;19920;-23
2022/09/17 06:54:59;;;;;;;;;;;;;;;;;;4995074;28;19971;-23
2022/09/17 06:57:25;;;;;;;;;;;;;;;;;;4995315;28;19913;-24
2022/09/17 06:59:51;;;;;;;;;;;;;;;;;;4995156;28;19910;-23
2022/09/17 07:02:17;;;;;;;;;;;;;;;;;;4995357;28;20274;-24
2022/09/17 07:04:42;;;;;;;;;;;;;;;;;;4995695;28;19914;-23
2022/09/17 07:07:09;;;;;;;;;;;;;;;;;;4995043;28;20014;-24
2022/09/17 07:09:35;;;;;;;;;;;;;;;;;;4995124;28;19917;-23
2022/09/17 07:12:01;;;;;;;;;;;;;;;;;;4995330;28;19920;-24
2022/09/17 07:14:27;;;;;;;;;;;;;;;;;;4994817;28;19910;-23
2022/09/17 07:16:53;;;;;;;;;;;;;;;;;;4994483;28;19929;-22
2022/09/17 07:19:19;;;;;;;;;;;;;;;;;;4994346;28;19975;-23
2022/09/17 07:21:45;;;;;;;;;;;;;;;;;;4994569;28;19910;-23
2022/09/17 07:24:11;;;;;;;;;;;;;;;;;;4994758;28;19914;-22
2022/09/17 07:26:37;;;;;;;;;;;;;;;;;;4994663;28;19914;-23
2022/09/17 07:29:03;;;;;;;;;;;;;;;;;;4994659;28;19924;-23
2022/09/17 07:31:30;;;;;;;;;;;;;;;;;;4994804;28;20314;-24
2022/09/17 07:33:56;;;;;;;;;;;;;;;;;;4994880;28;19921;-22
2022/09/17 07:36:22;;;;;;;;;;;;;;;;;;4995408;28;19960;-25
2022/09/17 07:38:48;;;;;;;;;;;;;;;;;;4994771;28;20321;-22
2022/09/17 07:41:14;;;;;;;;;;;;;;;;;;4994705;28;19913;-22
2022/09/17 07:43:40;;;;;;;;;;;;;;;;;;4994391;28;19926;-23
2022/09/17 07:46:07;;;;;;;;;;;;;;;;;;4994831;28;19914;-23
2022/09/17 07:48:33;;;;;;;;;;;;;;;;;;4994002;28;19993;-23
2022/09/17 07:50:59;;;;;;;;;;;;;;;;;;4994258;28;19926;-24
2022/09/17 07:53:25;;;;;;;;;;;;;;;;;;4994418;28;19975;-23
2022/09/17 07:55:51;;;;;;;;;;;;;;;;;;4994250;28;19914;-24
2022/09/17 07:58:17;;;;;;;;;;;;;;;;;;4994164;28;19910;-22
2022/09/17 08:00:43;;;;;;;;;;;;;;;;;;4993964;28;19914;-24
2022/09/17 08:03:09;;;;;;;;;;;;;;;;;;4994016;28;19996;-23
2022/09/17 08:05:35;;;;;;;;;;;;;;;;;;4994026;28;19914;-27
2022/09/17 08:08:01;;;;;;;;;;;;;;;;;;4993947;28;19986;-23
2022/09/17 08:10:27;;;;;;;;;;;;;;;;;;4994513;28;20012;-23
2022/09/17 08:12:53;;;;;;;;;;;;;;;;;;4994231;28;20426;-25
2022/09/17 08:15:19;;;;;;;;;;;;;;;;;;4993970;28;19997;-25
2022/09/17 08:17:45;;;;;;;;;;;;;;;;;;4994527;28;19913;-25
2022/09/17 08:20:11;;;;;;;;;;;;;;;;;;4993952;28;20368;-24
2022/09/17 08:22:37;;;;;;;;;;;;;;;;;;4994084;28;19910;-23
2022/09/17 08:25:03;;;;;;;;;;;;;;;;;;4994328;28;19918;-23
2022/09/17 08:27:29;;;;;;;;;;;;;;;;;;4994085;28;19924;-23
2022/09/17 08:29:55;;;;;;;;;;;;;;;;;;4992658;28;19918;-23
2022/09/17 08:32:21;;;;;;;;;;;;;;;;;;4993646;28;20289;-25
2022/09/17 08:34:47;;;;;;;;;;;;;;;;;;4993805;28;19971;-23
2022/09/17 08:37:13;;;;;;;;;;;;;;;;;;4993546;28;19925;-24
2022/09/17 08:39:39;;;;;;;;;;;;;;;;;;4993554;28;20333;-23
2022/09/17 08:42:06;;;;;;;;;;;;;;;;;;4993609;28;19945;-24
2022/09/17 08:44:32;;;;;;;;;;;;;;;;;;4993397;28;19921;-23
2022/09/17 08:46:59;;;;;;;;;;;;;;;;;;4993915;28;19919;-23
2022/09/17 08:49:25;;;;;;;;;;;;;;;;;;4993110;28;19922;-23
2022/09/17 08:51:52;;;;;;;;;;;;;;;;;;4993246;28;19914;-23
2022/09/17 08:54:18;;;;;;;;;;;;;;;;;;4993289;28;19910;-22
2022/09/17 08:56:44;;;;;;;;;;;;;;;;;;4993326;28;19925;-24
2022/09/17 08:59:10;;;;;;;;;;;;;;;;;;4993491;28;19910;-23
2022/09/17 09:01:36;;;;;;;;;;;;;;;;;;4993426;28;19914;-24
2022/09/17 09:04:04;;;;;;;;;;;;;;;;;;4993195;28;20301;-22
2022/09/17 09:06:30;;;;;;;;;;;;;;;;;;4992150;28;19914;-26
2022/09/17 09:08:56;;;;;;;;;;;;;;;;;;4993075;28;19910;-25
2022/09/17 09:11:25;;;;;;;;;;;;;;;;;;4993154;28;20017;-22
2022/09/17 09:13:51;;;;;;;;;;;;;;;;;;4993203;28;20283;-24
2022/09/17 09:16:17;;;;;;;;;;;;;;;;;;4993470;28;19950;-24
2022/09/17 09:18:43;;;;;;;;;;;;;;;;;;4993220;28;19914;-22
2022/09/17 09:21:09;;;;;;;;;;;;;;;;;;4993172;28;19978;-23
2022/09/17 09:23:35;;;;;;;;;;;;;;;;;;4993129;28;19914;-23
2022/09/17 09:26:00;;;;;;;;;;;;;;;;;;4993417;28;19921;-23
2022/09/17 09:28:27;;;;;;;;;;;;;;;;;;4992779;28;19914;-22
2022/09/17 09:30:53;;;;;;;;;;;;;;;;;;4992755;28;19918;-23
2022/09/17 09:33:18;;;;;;;;;;;;;;;;;;4992795;28;19997;-25
2022/09/17 09:35:45;;;;;;;;;;;;;;;;;;4992819;28;19914;-22
2022/09/17 09:38:10;;;;;;;;;;;;;;;;;;4993116;28;19922;-23
2022/09/17 09:40:36;;;;;;;;;;;;;;;;;;4992363;28;19933;-23
2022/09/17 09:43:03;;;;;;;;;;;;;;;;;;4993156;28;19990;-23
2022/09/17 09:45:28;;;;;;;;;;;;;;;;;;4992593;28;19921;-24
2022/09/17 09:47:54;;;;;;;;;;;;;;;;;;4992853;28;19914;-23
2022/09/17 09:50:20;;;;;;;;;;;;;;;;;;4992101;28;19987;-23
2022/09/17 09:52:48;;;;;;;;;;;;;;;;;;4991841;28;20217;-23
2022/09/17 09:55:14;;;;;;;;;;;;;;;;;;4992505;28;19913;-23
2022/09/17 09:57:40;;;;;;;;;;;;;;;;;;4992790;28;20321;-23
2022/09/17 10:00:06;;;;;;;;;;;;;;;;;;4992375;28;20366;-23
2022/09/17 10:02:32;;;;;;;;;;;;;;;;;;4992661;28;19905;-24
2022/09/17 10:04:58;;;;;;;;;;;;;;;;;;4992603;28;19914;-23
2022/09/17 10:07:24;;;;;;;;;;;;;;;;;;4992371;28;19917;-24
2022/09/17 10:09:50;;;;;;;;;;;;;;;;;;4992290;28;19925;-24
2022/09/17 10:12:16;;;;;;;;;;;;;;;;;;4992603;28;19910;-24
2022/09/17 10:14:43;;;;;;;;;;;;;;;;;;4992301;28;20006;-23
2022/09/17 10:17:10;;;;;;;;;;;;;;;;;;4992194;28;19959;-23
2022/09/17 10:19:36;;;;;;;;;;;;;;;;;;4992450;28;19910;-25
2022/09/17 10:22:02;;;;;;;;;;;;;;;;;;4992623;28;20300;-24
2022/09/17 10:24:28;;;;;;;;;;;;;;;;;;4992123;28;19965;-23
2022/09/17 10:26:54;;;;;;;;;;;;;;;;;;4992158;28;20001;-26
2022/09/17 10:29:20;;;;;;;;;;;;;;;;;;4991902;28;19964;-25
2022/09/17 10:31:47;;;;;;;;;;;;;;;;;;4991065;28;19914;-23
2022/09/17 10:34:13;;;;;;;;;;;;;;;;;;4992216;28;19921;-23
2022/09/17 10:36:39;;;;;;;;;;;;;;;;;;4992505;28;19950;-26
2022/09/17 10:39:05;;;;;;;;;;;;;;;;;;4992262;28;19910;-25
2022/09/17 10:41:31;;;;;;;;;;;;;;;;;;4991901;28;20009;-23
2022/09/17 10:43:57;;;;;;;;;;;;;;;;;;4991872;28;20506;-23
2022/09/17 10:46:23;;;;;;;;;;;;;;;;;;4992245;28;20230;-24
2022/09/17 10:48:49;;;;;;;;;;;;;;;;;;4991869;28;19933;-22
2022/09/17 10:51:15;;;;;;;;;;;;;;;;;;4991883;28;19918;-23
2022/09/17 10:53:47;;;;;;;;;;;;;;;;;;4993926;28;19921;-23
2022/09/17 10:56:13;;;;;;;;;;;;;;;;;;4995653;28;19997;-22
2022/09/17 10:58:39;;;;;;;;;;;;;;;;;;4994114;28;19964;-22
2022/09/17 11:01:05;;;;;;;;;;;;;;;;;;4994822;28;19914;-23
2022/09/17 11:03:31;;;;;;;;;;;;;;;;;;4994908;28;19913;-22
2022/09/17 11:05:57;;;;;;;;;;;;;;;;;;4995043;28;19993;-23
2022/09/17 11:08:23;;;;;;;;;;;;;;;;;;4995123;28;19913;-24
2022/09/17 11:10:50;;;;;;;;;;;;;;;;;;4995096;28;19920;-22
2022/09/17 11:13:16;;;;;;;;;;;;;;;;;;4995025;28;20307;-22
2022/09/17 11:15:42;;;;;;;;;;;;;;;;;;4994753;28;19952;-22
2022/09/17 11:18:08;;;;;;;;;;;;;;;;;;4994795;28;19942;-22
2022/09/17 11:20:34;;;;;;;;;;;;;;;;;;4994988;28;19978;-22
2022/09/17 11:23:00;;;;;;;;;;;;;;;;;;4994671;28;19937;-22
2022/09/17 11:25:26;;;;;;;;;;;;;;;;;;4995157;28;20325;-24
2022/09/17 11:27:52;;;;;;;;;;;;;;;;;;4994787;28;19921;-23
2022/09/17 11:30:18;;;;;;;;;;;;;;;;;;4994498;28;19917;-23
2022/09/17 11:32:44;;;;;;;;;;;;;;;;;;4994528;28;20002;-22
2022/09/17 11:35:10;;;;;;;;;;;;;;;;;;4993523;28;19917;-24
2022/09/17 11:37:36;;;;;;;;;;;;;;;;;;4994813;28;20286;-23
2022/09/17 11:40:03;;;;;;;;;;;;;;;;;;4994631;28;19921;-26
2022/09/17 11:42:29;;;;;;;;;;;;;;;;;;4994601;28;19909;-25
2022/09/17 11:44:55;;;;;;;;;;;;;;;;;;4994307;28;19932;-25
2022/09/17 11:47:21;;;;;;;;;;;;;;;;;;4994460;28;19917;-23
2022/09/17 11:49:47;;;;;;;;;;;;;;;;;;4994098;28;19976;-22
2022/09/17 11:52:13;;;;;;;;;;;;;;;;;;4994372;28;19922;-23
2022/09/17 11:54:39;;;;;;;;;;;;;;;;;;4994606;28;20273;-23
2022/09/17 11:57:05;;;;;;;;;;;;;;;;;;4994733;28;19937;-23
2022/09/17 11:59:31;;;;;;;;;;;;;;;;;;4994525;28;19968;-23
2022/09/17 12:01:57;;;;;;;;;;;;;;;;;;4994035;28;20409;-23
2022/09/17 12:04:23;;;;;;;;;;;;;;;;;;4993890;28;20230;-23
2022/09/17 12:06:49;;;;;;;;;;;;;;;;;;4994597;28;19925;-22
2022/09/17 12:09:15;;;;;;;;;;;;;;;;;;4994066;28;20292;-22
2022/09/17 12:11:41;;;;;;;;;;;;;;;;;;4993989;28;19925;-27
2022/09/17 12:14:07;;;;;;;;;;;;;;;;;;4993886;28;19917;-23
2022/09/17 12:16:33;;;;;;;;;;;;;;;;;;4994485;28;19914;-25
2022/09/17 12:19:00;;;;;;;;;;;;;;;;;;4994934;28;20248;-23
2022/09/17 12:21:26;;;;;;;;;;;;;;;;;;4993821;28;20256;-23
2022/09/17 12:23:51;;;;;;;;;;;;;;;;;;4993781;28;19910;-22
2022/09/17 12:26:17;;;;;;;;;;;;;;;;;;4994151;28;19914;-23
2022/09/17 12:28:43;;;;;;;;;;;;;;;;;;4993813;28;20386;-27
2022/09/17 12:31:09;;;;;;;;;;;;;;;;;;4994191;28;19971;-23
2022/09/17 12:33:35;;;;;;;;;;;;;;;;;;4993873;28;19938;-22
2022/09/17 12:36:01;;;;;;;;;;;;;;;;;;4993898;28;20009;-23
2022/09/17 12:38:27;;;;;;;;;;;;;;;;;;4993861;28;19971;-23
2022/09/17 12:40:53;;;;;;;;;;;;;;;;;;4993837;28;19914;-26
2022/09/17 12:43:19;;;;;;;;;;;;;;;;;;4993664;28;20374;-23
2022/09/17 12:45:46;;;;;;;;;;;;;;;;;;4993360;28;19998;-23
2022/09/17 12:48:12;;;;;;;;;;;;;;;;;;4993399;28;19910;-22
2022/09/17 12:50:38;;;;;;;;;;;;;;;;;;4993042;28;19933;-22
2022/09/17 12:53:04;;;;;;;;;;;;;;;;;;4993493;28;20276;-22
2022/09/17 12:55:30;;;;;;;;;;;;;;;;;;4993549;28;19918;-24
2022/09/17 12:57:56;;;;;;;;;;;;;;;;;;4993678;28;19914;-25
2022/09/17 13:00:22;;;;;;;;;;;;;;;;;;4993381;28;20034;-23
2022/09/17 13:02:48;;;;;;;;;;;;;;;;;;4993021;28;19914;-23
2022/09/17 13:05:14;;;;;;;;;;;;;;;;;;4993019;28;20407;-22
2022/09/17 13:07:40;;;;;;;;;;;;;;;;;;4992935;28;19914;-22
2022/09/17 13:10:06;;;;;;;;;;;;;;;;;;4992892;28;19921;-23
2022/09/17 13:12:32;;;;;;;;;;;;;;;;;;4992982;28;19916;-23
2022/09/17 13:14:58;;;;;;;;;;;;;;;;;;4992783;28;19913;-23
2022/09/17 13:17:24;;;;;;;;;;;;;;;;;;4992783;28;20029;-22
2022/09/17 13:19:51;;;;;;;;;;;;;;;;;;4992827;28;19967;-23
2022/09/17 13:22:17;;;;;;;;;;;;;;;;;;4993164;28;19910;-22
2022/09/17 13:24:45;;;;;;;;;;;;;;;;;;4993112;28;19914;-23
2022/09/17 13:27:11;;;;;;;;;;;;;;;;;;4992830;28;20322;-23
2022/09/17 13:29:37;;;;;;;;;;;;;;;;;;4992707;28;20016;-23
2022/09/17 13:32:03;;;;;;;;;;;;;;;;;;4993169;28;20005;-23
2022/09/17 13:34:29;;;;;;;;;;;;;;;;;;4992769;28;20368;-23
2022/09/17 13:36:55;;;;;;;;;;;;;;;;;;4992709;28;19914;-23
2022/09/17 13:39:21;;;;;;;;;;;;;;;;;;4992557;28;19914;-23
2022/09/17 13:41:47;;;;;;;;;;;;;;;;;;4992543;28;19921;-22
2022/09/17 13:44:13;;;;;;;;;;;;;;;;;;4992614;28;19914;-23
2022/09/17 13:46:39;;;;;;;;;;;;;;;;;;4992576;28;19971;-24
2022/09/17 13:49:05;;;;;;;;;;;;;;;;;;4992996;28;20264;-23
2022/09/17 13:51:31;;;;;;;;;;;;;;;;;;4992942;28;19914;-24
2022/09/17 13:53:57;;;;;;;;;;;;;;;;;;4992772;28;19920;-28
2022/09/17 13:56:23;;;;;;;;;;;;;;;;;;4992632;28;20000;-23
2022/09/17 13:58:49;;;;;;;;;;;;;;;;;;4992492;28;20306;-23
2022/09/17 14:01:15;;;;;;;;;;;;;;;;;;4992398;28;20420;-23
2022/09/17 14:03:45;;;;;;;;;;;;;;;;;;4992269;28;19910;-23
2022/09/17 14:06:13;;;;;;;;;;;;;;;;;;4992304;28;19921;-23
2022/09/17 14:08:40;;;;;;;;;;;;;;;;;;4992252;28;20059;-25
2022/09/17 14:11:06;;;;;;;;;;;;;;;;;;4992471;28;19914;-22
2022/09/17 14:13:31;;;;;;;;;;;;;;;;;;4992282;28;19996;-22
2022/09/17 14:16:00;;;;;;;;;;;;;;;;;;4992163;28;19910;-22
2022/09/17 14:18:26;;;;;;;;;;;;;;;;;;4992092;28;19914;-23
2022/09/17 14:20:53;;;;;;;;;;;;;;;;;;4992143;28;20023;-23
2022/09/17 14:23:19;;;;;;;;;;;;;;;;;;4991971;28;19914;-22
2022/09/17 14:25:45;;;;;;;;;;;;;;;;;;4991165;28;19943;-23
2022/09/17 14:28:11;;;;;;;;;;;;;;;;;;4995486;28;20344;-23
2022/09/17 14:30:37;;;;;;;;;;;;;;;;;;4995754;28;19918;-22
2022/09/17 14:33:03;;;;;;;;;;;;;;;;;;4995648;28;20393;-22
2022/09/17 14:35:29;;;;;;;;;;;;;;;;;;4995396;28;19914;-23
2022/09/17 14:37:55;;;;;;;;;;;;;;;;;;4995383;28;19925;-24
2022/09/17 14:40:22;;;;;;;;;;;;;;;;;;4995288;28;19920;-22
2022/09/17 14:42:48;;;;;;;;;;;;;;;;;;4995267;28;19917;-23
2022/09/17 14:45:14;;;;;;;;;;;;;;;;;;4995249;28;19936;-23
2022/09/17 14:47:40;;;;;;;;;;;;;;;;;;4994252;28;20242;-23
2022/09/17 14:50:06;;;;;;;;;;;;;;;;;;4994857;28;19922;-23
2022/09/17 14:52:32;;;;;;;;;;;;;;;;;;4995348;28;20252;-23
2022/09/17 14:54:58;;;;;;;;;;;;;;;;;;4994112;28;19913;-24
2022/09/17 14:57:24;;;;;;;;;;;;;;;;;;4995130;28;19971;-23
2022/09/17 14:59:51;;;;;;;;;;;;;;;;;;4995127;28;19937;-22
2022/09/17 15:02:17;;;;;;;;;;;;;;;;;;4994946;28;19913;-25
2022/09/17 15:04:43;;;;;;;;;;;;;;;;;;4995292;28;19909;-24
2022/09/17 15:07:09;;;;;;;;;;;;;;;;;;4994986;28;19984;-23
2022/09/17 15:09:35;;;;;;;;;;;;;;;;;;4994762;28;19925;-25
2022/09/17 15:12:01;;;;;;;;;;;;;;;;;;4994765;28;19939;-24
2022/09/17 15:14:27;;;;;;;;;;;;;;;;;;4994853;28;19914;-24
2022/09/17 15:16:53;;;;;;;;;;;;;;;;;;4994747;28;19921;-23
2022/09/17 15:19:19;;;;;;;;;;;;;;;;;;4994951;28;19910;-23
2022/09/17 15:21:45;;;;;;;;;;;;;;;;;;4994793;28;20344;-28
2022/09/17 15:24:11;;;;;;;;;;;;;;;;;;4994633;28;19959;-26
2022/09/17 15:26:37;;;;;;;;;;;;;;;;;;4995064;28;19914;-23
2022/09/17 15:29:03;;;;;;;;;;;;;;;;;;4994601;28;20425;-22
2022/09/17 15:31:30;;;;;;;;;;;;;;;;;;4994832;28;19933;-24
2022/09/17 15:33:56;;;;;;;;;;;;;;;;;;4994698;28;19968;-28
2022/09/17 15:36:22;;;;;;;;;;;;;;;;;;4994549;28;20309;-25
2022/09/17 15:38:48;;;;;;;;;;;;;;;;;;4994211;28;19914;-23
2022/09/17 15:41:14;;;;;;;;;;;;;;;;;;4994461;28;19929;-23
2022/09/17 15:43:40;;;;;;;;;;;;;;;;;;4994349;28;19918;-22
2022/09/17 15:46:06;;;;;;;;;;;;;;;;;;4994341;28;20005;-23
2022/09/17 15:48:35;;;;;;;;;;;;;;;;;;4994448;28;19994;-25
2022/09/17 15:51:01;;;;;;;;;;;;;;;;;;4994326;28;19953;-23
2022/09/17 15:53:27;;;;;;;;;;;;;;;;;;4994502;28;19944;-22
2022/09/17 15:55:53;;;;;;;;;;;;;;;;;;4994547;28;20264;-24
2022/09/17 15:58:19;;;;;;;;;;;;;;;;;;4994490;28;19910;-22
2022/09/17 16:00:46;;;;;;;;;;;;;;;;;;4994444;28;19925;-22
2022/09/17 16:03:12;;;;;;;;;;;;;;;;;;4994085;28;19909;-22
2022/09/17 16:05:38;;;;;;;;;;;;;;;;;;4995124;28;19914;-23
2022/09/17 16:08:04;;;;;;;;;;;;;;;;;;4994658;28;20241;-23
2022/09/17 16:10:30;;;;;;;;;;;;;;;;;;4994268;28;19933;-23
2022/09/17 16:12:56;;;;;;;;;;;;;;;;;;4994194;28;19914;-23
2022/09/17 16:15:22;;;;;;;;;;;;;;;;;;4994478;28;19921;-24
2022/09/17 16:17:48;;;;;;;;;;;;;;;;;;4993985;28;19910;-22
2022/09/17 16:20:14;;;;;;;;;;;;;;;;;;4993809;28;19918;-23
2022/09/17 16:22:41;;;;;;;;;;;;;;;;;;4994013;28;19920;-26
2022/09/17 16:25:07;;;;;;;;;;;;;;;;;;4993598;28;19914;-22
2022/09/17 16:27:33;;;;;;;;;;;;;;;;;;4993685;28;20013;-23
2022/09/17 16:29:59;;;;;;;;;;;;;;;;;;4994244;28;19918;-22
2022/09/17 16:32:25;;;;;;;;;;;;;;;;;;4993874;28;19925;-24
2022/09/17 16:34:51;;;;;;;;;;;;;;;;;;4993591;28;20209;-23
2022/09/17 16:37:17;;;;;;;;;;;;;;;;;;4994667;28;19914;-23